createdAt,value
2023-02-08T00:03:29.144Z,7.17
2023-02-08T00:08:33.113Z,4.17
2023-02-08T00:13:36.253Z,7.30
2023-02-08T00:18:41.209Z,7.07
2023-02-08T00:23:44.889Z,2.77
2023-02-08T00:28:48.084Z,5.17
2023-02-08T00:33:55.433Z,4.00
2023-02-08T00:38:58.594Z,4.57
2023-02-08T00:44:01.737Z,3.23
2023-02-08T00:49:06.493Z,2.63
2023-02-08T00:54:15.217Z,3.83
2023-02-08T00:59:18.542Z,2.53
2023-02-08T01:04:23.281Z,1.97
2023-02-08T01:09:26.630Z,3.13
2023-02-08T01:14:30.075Z,4.77
2023-02-08T01:19:36.263Z,1.70
2023-02-08T01:24:39.767Z,2.23
2023-02-08T01:29:43.073Z,1.80
2023-02-08T01:34:47.643Z,1.70
2023-02-08T01:39:50.900Z,1.70
2023-02-08T01:45:25.539Z,1.43
2023-02-08T01:50:34.072Z,1.50
2023-02-08T01:55:44.523Z,1.00
2023-02-08T02:00:50.323Z,1.47
2023-02-08T02:06:03.023Z,1.00
2023-02-08T02:11:07.669Z,0.80
2023-02-08T02:16:11.101Z,0.83
2023-02-08T02:21:36.615Z,1.20
2023-02-08T02:27:02.945Z,0.87
2023-02-08T02:32:29.689Z,4.13
2023-02-08T02:37:49.623Z,2.23
2023-02-08T02:43:19.832Z,0.70
2023-02-08T02:48:32.552Z,0.40
2023-02-08T02:53:47.050Z,0.63
2023-02-08T02:58:53.320Z,1.97
2023-02-08T03:03:58.862Z,0.87
2023-02-08T03:09:32.320Z,0.70
2023-02-08T03:14:45.998Z,0.70
2023-02-08T03:19:58.422Z,3.93
2023-02-08T03:25:07.390Z,0.77
2023-02-08T03:30:14.435Z,1.33
2023-02-08T03:35:24.198Z,2.40
2023-02-08T03:40:31.336Z,0.60
2023-02-08T03:45:40.771Z,0.70
2023-02-08T03:50:50.725Z,0.40
2023-02-08T03:56:01.150Z,0.40
2023-02-08T04:01:12.236Z,0.43
2023-02-08T04:06:17.231Z,0.83
2023-02-08T04:11:20.907Z,2.47
2023-02-08T04:16:24.274Z,0.30
2023-02-08T04:21:29.060Z,0.50
2023-02-08T04:26:32.531Z,2.67
2023-02-08T04:31:36.267Z,0.40
2023-02-08T04:36:41.490Z,0.30
2023-02-08T04:41:44.760Z,0.30
2023-02-08T04:46:47.962Z,0.40
2023-02-08T04:51:52.659Z,0.77
2023-02-08T04:56:56.290Z,0.57
2023-02-08T05:02:00.488Z,2.93
2023-02-08T05:07:06.891Z,0.20
2023-02-08T05:12:10.611Z,1.63
2023-02-08T05:17:15.122Z,1.63
2023-02-08T05:22:20.163Z,0.30
2023-02-08T05:27:23.764Z,0.40
2023-02-08T05:32:27.124Z,0.73
2023-02-08T05:37:32.039Z,0.30
2023-02-08T05:42:35.412Z,0.83
2023-02-08T05:47:38.795Z,0.50
2023-02-08T05:52:43.603Z,0.40
2023-02-08T05:57:46.791Z,1.93
2023-02-08T06:02:50.291Z,9.10
2023-02-08T06:07:55.169Z,1.43
2023-02-08T06:12:58.518Z,2.50
2023-02-08T06:18:02.005Z,1.73
2023-02-08T06:23:06.927Z,2.03
2023-02-08T06:28:10.953Z,1.53
2023-02-08T06:33:15.825Z,3.97
2023-02-08T06:38:20.898Z,1.27
2023-02-08T06:43:24.322Z,0.83
2023-02-08T06:48:27.618Z,9.13
2023-02-08T06:53:32.503Z,2.83
2023-02-08T06:58:35.838Z,3.90
2023-02-08T07:03:39.194Z,1.33
2023-02-08T07:08:44.544Z,3.03
2023-02-08T07:13:48.808Z,1.17
2023-02-08T07:18:52.081Z,3.47
2023-02-08T07:23:56.696Z,2.60
2023-02-08T07:29:00.099Z,3.60
2023-02-08T07:34:03.485Z,7.73
2023-02-08T07:39:08.293Z,7.60
2023-02-08T07:44:11.611Z,6.53
2023-02-08T07:49:15.378Z,3.37
2023-02-08T07:54:20.107Z,13.80
2023-02-08T07:59:23.463Z,5.63
2023-02-08T08:04:26.877Z,2.97
2023-02-08T08:09:35.154Z,2.87
2023-02-08T08:14:39.391Z,4.43
2023-02-08T08:19:43.344Z,2.60
2023-02-08T08:24:48.078Z,2.37
2023-02-08T08:29:51.550Z,2.20
2023-02-08T08:34:54.772Z,4.00
2023-02-08T08:39:59.811Z,1.23
2023-02-08T08:45:03.528Z,2.83
2023-02-08T08:50:07.631Z,3.00
2023-02-08T08:55:12.306Z,1.10
2023-02-08T09:00:16.344Z,5.93
2023-02-08T09:05:20.013Z,2.00
2023-02-08T09:10:24.628Z,2.50
2023-02-08T09:15:27.713Z,1.17
2023-02-08T09:20:30.856Z,0.83
2023-02-08T09:25:37.183Z,1.80
2023-02-08T09:30:41.607Z,2.07
2023-02-08T09:35:45.044Z,3.60
2023-02-08T09:40:59.086Z,1.47
2023-02-08T09:46:06.640Z,2.87
2023-02-08T09:51:22.671Z,1.43
2023-02-08T09:56:31.268Z,1.80
2023-02-08T10:01:37.428Z,5.20
2023-02-08T10:06:40.761Z,2.30
2023-02-08T10:11:56.375Z,1.57
2023-02-08T10:17:11.343Z,2.00
2023-02-08T10:22:28.293Z,1.43
2023-02-08T10:27:44.499Z,2.43
2023-02-08T10:33:01.246Z,1.50
2023-02-08T10:38:29.702Z,2.90
2023-02-08T10:43:47.556Z,1.80
2023-02-08T10:49:08.244Z,1.90
2023-02-08T10:54:13.896Z,5.00
2023-02-08T10:59:24.661Z,2.63
2023-02-08T11:04:28.286Z,5.50
2023-02-08T11:09:32.842Z,2.43
2023-02-08T11:14:47.193Z,5.60
2023-02-08T11:19:52.029Z,3.13
2023-02-08T11:24:58.574Z,5.47
2023-02-08T11:30:24.696Z,2.77
2023-02-08T11:35:36.239Z,5.30
2023-02-08T11:40:46.048Z,5.53
2023-02-08T11:45:51.619Z,5.67
2023-02-08T11:51:02.000Z,4.30
2023-02-08T11:56:09.197Z,3.97
2023-02-08T12:01:21.727Z,3.70
2023-02-08T12:06:40.720Z,7.87
2023-02-08T12:11:46.662Z,2.63
2023-02-08T12:17:04.760Z,2.60
2023-02-08T12:22:12.214Z,4.73
2023-02-08T12:27:33.352Z,8.83
2023-02-08T12:32:56.969Z,3.83
2023-02-08T12:38:26.420Z,4.80
2023-02-08T12:43:44.491Z,2.40
2023-02-08T12:49:06.728Z,1.70
2023-02-08T12:54:13.480Z,7.67
2023-02-08T12:59:24.857Z,2.07
2023-02-08T13:04:36.057Z,22.03
2023-02-08T13:09:44.377Z,3.93
2023-02-08T13:14:51.479Z,2.83
2023-02-08T13:20:01.643Z,2.87
2023-02-08T13:25:10.617Z,1.17
2023-02-08T13:30:21.032Z,1.20
2023-02-08T13:35:29.544Z,1.20
2023-02-08T13:40:35.792Z,1.13
2023-02-08T13:45:41.366Z,4.03
2023-02-08T13:50:49.535Z,2.50
2023-02-08T13:55:59.674Z,2.57
2023-02-08T14:01:14.985Z,5.17
2023-02-08T14:06:24.231Z,4.13
2023-02-08T14:11:43.428Z,9.00
2023-02-08T14:16:47.634Z,12.03
2023-02-08T14:22:03.703Z,3.00
2023-02-08T14:27:09.708Z,4.80
2023-02-08T14:32:25.056Z,2.37
2023-02-08T14:37:32.594Z,4.33
2023-02-08T14:42:56.234Z,4.23
2023-02-08T14:48:07.898Z,4.57
2023-02-08T14:53:44.502Z,4.50
2023-02-08T14:58:52.325Z,3.47
2023-02-08T15:04:00.588Z,3.37
2023-02-08T15:09:07.846Z,11.10
2023-02-08T15:14:20.536Z,8.23
2023-02-08T15:19:27.217Z,11.10
2023-02-08T15:24:32.015Z,24.93
2023-02-08T15:29:44.825Z,14.53
2023-02-08T15:34:54.374Z,16.20
2023-02-08T15:40:00.489Z,8.60
2023-02-08T15:45:04.610Z,15.97
2023-02-08T15:50:18.052Z,25.87
2023-02-08T15:55:23.351Z,19.37
2023-02-08T16:00:30.734Z,16.57
2023-02-08T16:05:35.613Z,6.63
2023-02-08T16:10:45.252Z,6.47
2023-02-08T16:15:52.049Z,12.80
2023-02-08T16:20:59.559Z,32.73
2023-02-08T16:26:22.159Z,61.93
2023-02-08T16:31:29.523Z,12.33
2023-02-08T16:36:37.700Z,10.10
2023-02-08T16:42:15.920Z,12.43
2023-02-08T16:47:27.293Z,10.90
2023-02-08T16:52:30.508Z,15.13
2023-02-08T16:57:43.600Z,16.10
2023-02-08T17:02:47.415Z,10.30
2023-02-08T17:07:51.621Z,10.23
2023-02-08T17:13:09.835Z,8.33
2023-02-08T17:18:19.868Z,13.90
2023-02-08T17:23:23.107Z,11.00
2023-02-08T17:28:28.350Z,10.27
2023-02-08T17:33:36.435Z,11.33
2023-02-08T17:38:41.302Z,8.80
2023-02-08T17:43:46.399Z,13.60
2023-02-08T17:48:49.981Z,10.10
2023-02-08T17:53:53.396Z,10.80
2023-02-08T17:59:00.931Z,15.93
2023-02-08T18:04:04.087Z,15.93
2023-02-08T18:09:07.365Z,9.60
2023-02-08T18:14:11.984Z,16.70
2023-02-08T18:19:15.394Z,23.07
2023-02-08T18:24:19.083Z,31.47
2023-02-08T18:29:23.745Z,17.00
2023-02-08T18:34:27.544Z,13.00
2023-02-08T18:39:31.271Z,20.93
2023-02-08T18:44:36.908Z,25.93
2023-02-08T18:49:41.661Z,17.77
2023-02-08T18:54:44.917Z,24.13
2023-02-08T18:59:50.770Z,22.13
2023-02-08T19:04:53.975Z,21.20
2023-02-08T19:09:57.145Z,27.40
2023-02-08T19:15:02.080Z,26.57
2023-02-08T19:20:07.254Z,25.77
2023-02-08T19:25:11.792Z,26.27
2023-02-08T19:30:17.351Z,23.33
2023-02-08T19:35:23.125Z,33.30
2023-02-08T19:40:27.518Z,39.90
2023-02-08T19:45:32.894Z,84.47
2023-02-08T19:50:36.189Z,59.93
2023-02-08T19:55:40.060Z,57.20
2023-02-08T20:00:45.421Z,30.53
2023-02-08T20:05:50.037Z,32.13
2023-02-08T20:10:54.239Z,29.00
2023-02-08T20:16:01.083Z,20.27
2023-02-08T20:21:05.625Z,26.93
2023-02-08T20:26:11.810Z,23.60
2023-02-08T20:31:19.225Z,21.83
2023-02-08T20:36:25.952Z,23.63
2023-02-08T20:41:31.417Z,21.33
2023-02-08T20:46:37.965Z,17.70
2023-02-08T20:51:41.678Z,23.27
2023-02-08T20:56:45.692Z,16.40
2023-02-08T21:01:50.862Z,16.30
2023-02-08T21:06:55.152Z,17.40
2023-02-08T21:11:58.757Z,13.40
2023-02-08T21:17:03.636Z,19.67
2023-02-08T21:22:07.076Z,11.73
2023-02-08T21:27:10.499Z,18.63
2023-02-08T21:32:15.180Z,13.63
2023-02-08T21:37:18.452Z,14.30
2023-02-08T21:42:21.686Z,11.80
2023-02-08T21:47:26.842Z,16.20
2023-02-08T21:52:47.258Z,62.13
2023-02-08T21:57:50.495Z,36.33
2023-02-08T22:02:55.150Z,41.97
2023-02-08T22:07:59.286Z,35.20
2023-02-08T22:13:02.477Z,25.20
2023-02-08T22:18:07.404Z,21.77
2023-02-08T22:23:14.902Z,23.17
2023-02-08T22:28:18.188Z,20.00
2023-02-08T22:33:22.842Z,20.77
2023-02-08T22:38:26.464Z,26.73
2023-02-08T22:43:29.978Z,18.60
2023-02-08T22:48:35.094Z,16.10
2023-02-08T22:53:38.454Z,22.77
2023-02-08T22:58:43.444Z,16.10
2023-02-08T23:03:48.221Z,18.10
2023-02-08T23:08:51.577Z,25.07
2023-02-08T23:13:54.950Z,24.10
2023-02-08T23:18:59.870Z,19.63
2023-02-08T23:24:03.060Z,20.13
2023-02-08T23:29:06.355Z,24.73
2023-02-08T23:34:12.662Z,18.90
2023-02-08T23:39:15.976Z,20.83
2023-02-08T23:44:19.226Z,26.90
2023-02-08T23:49:23.869Z,23.90
2023-02-08T23:54:27.087Z,11.20
2023-02-08T23:59:30.689Z,11.00
